Time;durP1;ratioP1;P1;durP2;ratioP2;P2;SDS_P1;SDS_P2;PMS_P1;PMS_P2;Temp;Humidity;BMP_temperature;BMP_pressure;BME280_temperature;BME280_humidity;BME280_pressure;Samples;Min_cycle;Max_cycle;Signal;HPM_P1;HPM_P2
2023/06/07 00:01:33;;;;;;;5.15;2.75;;;18.10;99.90;;;;;;5052731;28;20056;-49
2023/06/07 00:04:02;;;;;;;6.65;3.03;;;18.10;99.90;;;;;;5053113;28;20111;-51
2023/06/07 00:06:28;;;;;;;7.57;2.92;;;18.10;99.90;;;;;;5052786;28;20519;-48
2023/06/07 00:08:55;;;;;;;5.90;3.10;;;18.10;99.90;;;;;;5053012;28;20455;-52
2023/06/07 00:11:21;;;;;;;8.63;3.00;;;18.00;99.90;;;;;;5052756;28;20074;-51
2023/06/07 00:13:49;;;;;;;6.80;3.20;;;17.90;99.90;;;;;;5035312;28;20040;-51
2023/06/07 00:16:16;;;;;;;5.40;2.67;;;17.90;99.90;;;;;;5052651;28;20035;-50
2023/06/07 00:18:41;;;;;;;5.25;2.70;;;17.80;99.90;;;;;;5052629;28;20029;-47
2023/06/07 00:21:08;;;;;;;6.97;3.10;;;17.80;99.90;;;;;;5052552;28;20078;-52
2023/06/07 00:23:35;;;;;;;6.75;3.25;;;17.70;99.90;;;;;;5052378;28;20041;-51
2023/06/07 00:26:01;;;;;;;7.40;3.10;;;17.70;99.90;;;;;;5052603;28;20039;-51
2023/06/07 00:28:27;;;;;;;6.85;3.10;;;17.60;99.90;;;;;;5052695;28;20113;-51
2023/06/07 00:30:53;;;;;;;5.95;2.78;;;17.60;99.90;;;;;;5052364;28;20388;-51
2023/06/07 00:33:22;;;;;;;6.43;3.40;;;17.60;99.90;;;;;;5052586;28;20124;-51
2023/06/07 00:35:48;;;;;;;6.03;3.05;;;17.60;99.90;;;;;;5034183;28;20557;-49
2023/06/07 00:38:13;;;;;;;6.40;3.25;;;17.50;99.90;;;;;;5052317;28;20131;-48
2023/06/07 00:40:39;;;;;;;6.95;3.17;;;17.50;99.90;;;;;;5051880;28;20044;-48
2023/06/07 00:43:05;;;;;;;7.70;3.20;;;17.50;99.90;;;;;;5052019;28;20044;-49
2023/06/07 00:45:31;;;;;;;7.43;3.20;;;17.40;99.90;;;;;;5051826;28;20025;-51
2023/06/07 00:47:57;;;;;;;9.45;3.38;;;17.40;99.90;;;;;;5051853;28;20024;-48
2023/06/07 00:50:23;;;;;;;5.65;3.03;;;17.40;99.90;;;;;;5052019;28;20049;-48
2023/06/07 00:52:50;;;;;;;6.80;2.83;;;17.30;99.90;;;;;;5033851;28;20040;-48
2023/06/07 00:55:16;;;;;;;6.47;3.20;;;17.20;99.90;;;;;;5033934;28;20029;-50
2023/06/07 00:57:43;;;;;;;5.25;2.92;;;17.10;99.90;;;;;;5052249;28;20025;-47
2023/06/07 01:00:13;;;;;;;7.03;3.15;;;17.10;99.90;;;;;;5051831;28;20052;-49
2023/06/07 01:02:40;;;;;;;5.72;3.40;;;17.10;99.90;;;;;;5051578;28;20455;-49
2023/06/07 01:05:06;;;;;;;8.40;3.28;;;17.00;99.90;;;;;;5051465;28;20037;-51
2023/06/07 01:07:32;;;;;;;6.07;3.08;;;17.00;99.90;;;;;;5033717;28;20045;-47
2023/06/07 01:10:03;;;;;;;10.57;3.45;;;16.90;99.90;;;;;;5033537;28;20086;-48
2023/06/07 01:12:29;;;;;;;6.47;2.92;;;17.00;99.90;;;;;;5051368;28;20040;-47
2023/06/07 01:14:56;;;;;;;6.90;3.47;;;16.90;99.90;;;;;;5051257;28;20025;-47
2023/06/07 01:17:24;;;;;;;5.55;2.80;;;16.90;99.90;;;;;;5051355;28;20087;-49
2023/06/07 01:19:53;;;;;;;6.05;3.38;;;16.90;99.90;;;;;;5051469;28;20025;-48
2023/06/07 01:22:27;;;;;;;6.78;2.97;;;17.00;99.90;;;;;;5032693;28;20055;-47
2023/06/07 01:24:55;;;;;;;7.57;2.90;;;17.00;99.90;;;;;;5051327;28;20029;-48
2023/06/07 01:27:27;;;;;;;5.93;3.03;;;17.00;99.90;;;;;;5033107;28;20049;-49
2023/06/07 01:29:54;;;;;;;5.40;3.10;;;17.00;99.90;;;;;;5051288;28;20039;-47
2023/06/07 01:32:21;;;;;;;5.57;2.53;;;17.00;99.90;;;;;;5032874;28;20119;-47
2023/06/07 01:34:50;;;;;;;6.30;2.67;;;17.00;99.90;;;;;;5033104;28;20036;-47
2023/06/07 01:37:19;;;;;;;5.63;3.03;;;17.00;99.90;;;;;;5032969;28;20029;-49
2023/06/07 01:39:46;;;;;;;8.63;3.40;;;17.00;99.90;;;;;;5050988;28;20033;-48
2023/06/07 01:42:13;;;;;;;5.75;2.70;;;17.10;99.90;;;;;;5050367;28;20045;-47
2023/06/07 01:44:40;;;;;;;7.82;2.88;;;17.10;99.90;;;;;;5050880;28;20068;-49
2023/06/07 01:47:08;;;;;;;6.15;2.90;;;17.10;99.90;;;;;;5033086;28;20037;-47
2023/06/07 01:49:34;;;;;;;7.68;3.28;;;17.10;99.90;;;;;;5051159;28;20033;-49
2023/06/07 01:52:00;;;;;;;5.30;3.00;;;17.10;99.90;;;;;;5050702;28;20029;-47
2023/06/07 01:54:26;;;;;;;8.38;3.25;;;17.10;99.90;;;;;;5033021;28;20074;-49
2023/06/07 01:57:16;;;;;;;6.90;3.28;;;17.10;99.90;;;;;;5050773;28;20029;-47
2023/06/07 01:59:53;;;;;;;6.57;2.90;;;17.10;99.90;;;;;;5032887;28;20025;-49
2023/06/07 02:02:46;;;;;;;11.23;2.90;;;17.20;99.90;;;;;;5032604;28;20036;-48
2023/06/07 02:05:20;;;;;;;6.07;2.72;;;17.20;99.90;;;;;;5032815;28;20033;-48
2023/06/07 02:07:49;;;;;;;5.95;3.13;;;17.20;99.90;;;;;;5050869;28;20659;-47
2023/06/07 02:10:20;;;;;;;7.45;3.10;;;17.20;99.90;;;;;;5050755;28;20108;-47
2023/06/07 02:12:51;;;;;;;10.45;3.30;;;17.20;99.90;;;;;;5032524;28;20544;-47
2023/06/07 02:15:17;;;;;;;6.60;3.00;;;17.20;99.90;;;;;;5032570;28;20489;-48
2023/06/07 02:17:58;;;;;;;7.93;2.95;;;17.20;99.90;;;;;;5032681;28;20029;-48
2023/06/07 02:20:27;;;;;;;9.13;4.40;;;17.20;99.90;;;;;;5032685;28;20176;-47
2023/06/07 02:22:55;;;;;;;8.52;3.17;;;17.20;99.90;;;;;;5050792;28;20053;-50
2023/06/07 02:25:22;;;;;;;6.80;3.08;;;17.20;99.90;;;;;;5032528;28;20465;-48
2023/06/07 02:27:49;;;;;;;6.30;2.90;;;17.20;99.90;;;;;;5032562;28;20029;-48
2023/06/07 02:30:15;;;;;;;6.40;2.90;;;17.20;99.90;;;;;;5050090;28;20466;-49
2023/06/07 02:32:45;;;;;;;9.90;3.10;;;17.20;99.90;;;;;;5032642;28;20030;-48
2023/06/07 02:35:11;;;;;;;7.82;3.05;;;17.20;99.90;;;;;;5050911;28;20466;-48
2023/06/07 02:37:37;;;;;;;6.93;2.90;;;17.20;99.90;;;;;;5053620;28;20025;-48
2023/06/07 02:40:05;;;;;;;7.72;3.40;;;17.20;99.90;;;;;;5035463;28;20029;-48
2023/06/07 02:42:31;;;;;;;6.83;3.07;;;17.20;99.90;;;;;;5053706;28;20142;-48
2023/06/07 02:44:57;;;;;;;10.15;3.20;;;17.20;99.90;;;;;;5054304;28;20462;-48
2023/06/07 02:47:23;;;;;;;6.15;2.80;;;17.20;99.90;;;;;;5054060;28;20033;-49
2023/06/07 02:49:49;;;;;;;6.05;3.05;;;17.10;99.90;;;;;;5036209;28;20052;-48
2023/06/07 02:52:15;;;;;;;6.38;3.00;;;17.10;99.90;;;;;;5035441;28;20498;-48
2023/06/07 02:54:41;;;;;;;6.65;3.20;;;17.10;99.90;;;;;;5035591;28;20102;-48
2023/06/07 02:57:08;;;;;;;6.10;3.20;;;17.20;99.90;;;;;;5035249;28;20029;-48
2023/06/07 02:59:33;;;;;;;7.00;3.17;;;17.10;99.90;;;;;;5053435;28;20425;-48
2023/06/07 03:02:00;;;;;;;8.50;3.30;;;17.20;99.90;;;;;;5035143;28;20059;-48
2023/06/07 03:04:28;;;;;;;7.57;3.22;;;17.10;99.90;;;;;;5035677;28;20033;-48
2023/06/07 03:06:58;;;;;;;9.05;3.13;;;17.10;99.90;;;;;;5035233;28;20052;-48
2023/06/07 03:09:31;;;;;;;6.85;3.20;;;17.10;99.90;;;;;;5035355;28;20119;-49
2023/06/07 03:11:57;;;;;;;7.53;3.03;;;17.10;99.90;;;;;;5034843;28;20128;-48
2023/06/07 03:14:26;;;;;;;9.30;3.05;;;17.10;99.90;;;;;;5035135;28;20055;-48
2023/06/07 03:16:53;;;;;;;10.98;3.42;;;17.10;99.90;;;;;;5035015;28;20028;-47
2023/06/07 03:19:19;;;;;;;6.32;2.90;;;17.10;99.90;;;;;;5035158;28;20040;-47
2023/06/07 03:21:45;;;;;;;10.52;3.03;;;17.00;99.90;;;;;;5034735;28;20075;-47
2023/06/07 03:24:13;;;;;;;7.07;2.88;;;17.10;99.90;;;;;;5034445;28;20192;-47
2023/06/07 03:26:40;;;;;;;8.45;3.20;;;17.10;99.90;;;;;;5033866;28;20033;-47
2023/06/07 03:29:06;;;;;;;5.93;2.65;;;17.00;99.90;;;;;;5035011;28;20029;-47
2023/06/07 03:31:36;;;;;;;6.90;3.53;;;17.00;99.90;;;;;;5034645;28;20029;-48
2023/06/07 03:34:06;;;;;;;6.55;3.55;;;17.00;99.90;;;;;;5034925;28;20037;-49
2023/06/07 03:36:32;;;;;;;8.60;3.60;;;17.00;99.90;;;;;;5034866;28;20588;-47
2023/06/07 03:38:59;;;;;;;7.05;3.70;;;17.00;99.90;;;;;;5034947;28;20112;-47
2023/06/07 03:41:25;;;;;;;8.73;3.25;;;16.90;99.90;;;;;;5034415;28;20075;-47
2023/06/07 03:43:53;;;;;;;8.98;3.70;;;16.90;99.90;;;;;;5034899;28;20220;-48
2023/06/07 03:46:19;;;;;;;6.88;3.55;;;16.90;99.90;;;;;;5034170;28;20021;-48
2023/06/07 03:48:46;;;;;;;8.93;3.72;;;16.80;99.90;;;;;;5034845;28;20029;-48
2023/06/07 03:51:11;;;;;;;8.35;4.13;;;16.80;99.90;;;;;;5034512;28;20031;-47
2023/06/07 03:53:38;;;;;;;7.88;3.90;;;16.80;99.90;;;;;;5034885;28;20033;-48
2023/06/07 03:56:05;;;;;;;8.32;3.22;;;16.80;99.90;;;;;;5052351;28;20036;-47
2023/06/07 03:58:33;;;;;;;8.25;3.80;;;16.80;99.90;;;;;;5034727;28;20021;-47
2023/06/07 04:01:06;;;;;;;9.93;3.97;;;16.80;99.90;;;;;;5034471;28;20501;-46
2023/06/07 04:03:32;;;;;;;9.20;3.80;;;16.70;99.90;;;;;;5034371;28;20036;-47
2023/06/07 04:06:01;;;;;;;;;;;16.70;99.90;;;;;;5034723;28;20032;-47
2023/06/07 04:08:27;;;;;;;8.60;3.47;;;16.70;99.90;;;;;;5034346;28;20452;-47
2023/06/07 04:10:53;;;;;;;8.77;3.58;;;16.70;99.90;;;;;;5033920;28;20200;-47
2023/06/07 04:13:19;;;;;;;8.63;3.60;;;16.70;99.90;;;;;;5033952;28;20083;-48
2023/06/07 04:15:46;;;;;;;9.63;4.10;;;16.60;99.90;;;;;;5034051;28;20021;-48
2023/06/07 04:18:12;;;;;;;6.63;3.42;;;16.60;99.90;;;;;;5034165;28;20029;-48
2023/06/07 04:20:41;;;;;;;9.48;4.47;;;16.60;99.90;;;;;;5034088;28;20053;-48
2023/06/07 04:23:07;;;;;;;11.30;3.42;;;16.60;99.90;;;;;;5033882;28;20056;-49
2023/06/07 04:25:33;;;;;;;7.65;3.65;;;16.60;99.90;;;;;;5051532;28;20071;-48
2023/06/07 04:28:02;;;;;;;7.57;3.83;;;16.60;99.90;;;;;;5033969;28;20566;-47
2023/06/07 04:30:36;;;;;;;7.25;3.35;;;16.60;99.90;;;;;;5033593;28;20099;-48
2023/06/07 04:33:08;;;;;;;7.38;3.65;;;16.60;99.90;;;;;;5033873;28;20028;-48
2023/06/07 04:35:36;;;;;;;8.82;3.60;;;16.60;99.90;;;;;;5033544;28;20017;-49
2023/06/07 04:38:04;;;;;;;8.13;3.50;;;16.60;99.90;;;;;;5033688;28;20112;-48
2023/06/07 04:40:30;;;;;;;8.13;3.70;;;16.60;99.90;;;;;;5033403;28;20460;-47
2023/06/07 04:43:04;;;;;;;10.32;3.67;;;16.60;99.90;;;;;;5033546;28;20041;-48
2023/06/07 04:45:33;;;;;;;8.57;3.50;;;16.50;99.90;;;;;;5033347;28;20032;-48
2023/06/07 04:48:00;;;;;;;9.35;4.15;;;16.50;99.90;;;;;;5033629;28;20444;-51
2023/06/07 04:50:30;;;;;;;10.77;3.90;;;16.50;99.90;;;;;;5033222;28;20025;-48
2023/06/07 04:53:03;;;;;;;8.05;3.50;;;16.50;99.90;;;;;;5033455;28;20051;-47
2023/06/07 04:55:34;;;;;;;10.27;3.85;;;16.50;99.90;;;;;;5033104;28;20029;-47
2023/06/07 04:58:04;;;;;;;12.07;4.28;;;16.50;99.90;;;;;;5032568;28;20417;-47
2023/06/07 05:00:33;;;;;;;9.52;3.80;;;16.50;99.90;;;;;;5032951;28;20051;-47
2023/06/07 05:03:06;;;;;;;9.10;3.85;;;16.40;99.90;;;;;;5033206;28;20029;-48
2023/06/07 05:05:33;;;;;;;9.98;4.22;;;16.40;99.90;;;;;;5033075;28;20079;-47
2023/06/07 05:08:00;;;;;;;9.60;3.72;;;16.50;99.90;;;;;;5033320;28;20036;-47
2023/06/07 05:10:26;;;;;;;7.90;3.55;;;16.50;99.90;;;;;;5050575;28;20055;-47
2023/06/07 05:12:52;;;;;;;8.35;3.50;;;16.50;99.90;;;;;;5032849;28;20061;-49
2023/06/07 05:15:18;;;;;;;6.82;3.40;;;16.50;99.90;;;;;;5032943;28;20039;-47
2023/06/07 05:17:48;;;;;;;8.60;3.60;;;16.50;99.90;;;;;;5033000;28;20025;-47
2023/06/07 05:20:15;;;;;;;9.82;3.30;;;16.40;99.90;;;;;;5016558;28;20051;-47
2023/06/07 05:22:42;;;;;;;10.45;4.57;;;16.50;99.90;;;;;;5032798;28;20537;-48
2023/06/07 05:25:10;;;;;;;12.30;5.60;;;16.50;99.90;;;;;;5032612;28;20208;-48
2023/06/07 05:27:36;;;;;;;7.57;4.03;;;16.50;99.90;;;;;;5032834;28;20120;-49
2023/06/07 05:30:04;;;;;;;8.18;4.25;;;16.50;99.90;;;;;;5032683;28;20035;-48
2023/06/07 05:32:31;;;;;;;8.32;4.15;;;16.50;99.90;;;;;;5032550;28;20039;-48
2023/06/07 05:34:57;;;;;;;9.43;4.90;;;16.50;99.90;;;;;;5032789;28;20059;-48
2023/06/07 05:37:27;;;;;;;10.10;4.50;;;16.50;99.90;;;;;;5032505;28;20033;-48
2023/06/07 05:39:54;;;;;;;8.45;4.15;;;16.40;99.90;;;;;;5032600;28;20489;-49
2023/06/07 05:42:20;;;;;;;9.65;4.18;;;16.40;99.90;;;;;;5050385;28;20036;-47
2023/06/07 05:44:46;;;;;;;8.30;4.38;;;16.40;99.90;;;;;;5032905;28;20032;-46
2023/06/07 05:47:13;;;;;;;12.82;5.38;;;16.30;99.90;;;;;;5050520;28;20371;-47
2023/06/07 05:49:38;;;;;;;9.00;4.53;;;16.20;99.90;;;;;;5050500;28;20040;-47
2023/06/07 05:52:05;;;;;;;9.43;4.50;;;16.20;99.90;;;;;;5032399;28;20036;-47
2023/06/07 05:54:31;;;;;;;10.45;4.63;;;16.20;99.90;;;;;;5050294;28;20029;-47
2023/06/07 05:56:57;;;;;;;9.40;4.30;;;16.10;99.90;;;;;;5050439;28;20031;-48
2023/06/07 05:59:23;;;;;;;7.85;4.20;;;16.10;99.90;;;;;;5050482;28;20020;-48
2023/06/07 06:01:49;;;;;;;11.82;4.90;;;16.10;99.90;;;;;;5015830;28;20063;-47
2023/06/07 06:04:16;;;;;;;10.85;4.85;;;16.10;99.90;;;;;;5050440;28;20036;-49
2023/06/07 06:06:42;;;;;;;12.38;4.78;;;16.20;99.90;;;;;;5050079;28;20086;-48
2023/06/07 06:09:09;;;;;;;9.50;4.75;;;16.20;99.90;;;;;;5052072;28;20367;-48
2023/06/07 06:11:35;;;;;;;11.75;5.13;;;16.20;99.90;;;;;;5054077;28;20539;-51
2023/06/07 06:14:01;;;;;;;8.38;4.10;;;16.20;99.90;;;;;;5054106;28;20033;-50
2023/06/07 06:16:27;;;;;;;8.23;4.55;;;16.30;99.90;;;;;;5054158;28;20021;-48
2023/06/07 06:18:52;;;;;;;9.98;4.95;;;16.30;99.90;;;;;;5054206;28;20025;-49
2023/06/07 06:21:18;;;;;;;7.80;3.50;;;16.30;99.90;;;;;;5054340;28;20355;-51
2023/06/07 06:23:44;;;;;;;9.07;4.72;;;16.30;99.90;;;;;;5054135;28;20033;-47
2023/06/07 06:26:10;;;;;;;9.20;4.47;;;16.40;99.90;;;;;;5053998;28;20032;-48
2023/06/07 06:28:35;;;;;;;9.77;4.15;;;16.40;99.90;;;;;;5054071;28;20032;-47
2023/06/07 06:31:03;;;;;;;11.00;4.63;;;16.40;99.90;;;;;;5053842;28;20036;-47
2023/06/07 06:33:29;;;;;;;9.23;4.20;;;16.30;99.90;;;;;;5053939;28;20037;-48
2023/06/07 06:35:54;;;;;;;9.63;4.65;;;16.30;99.90;;;;;;5053698;28;20120;-48
2023/06/07 06:38:20;;;;;;;12.70;5.32;;;16.30;99.90;;;;;;5053917;28;20040;-47
2023/06/07 06:40:46;;;;;;;11.63;4.22;;;16.30;99.90;;;;;;5053793;28;20029;-47
2023/06/07 06:43:12;;;;;;;8.50;4.38;;;16.40;99.90;;;;;;5054005;28;20078;-48
2023/06/07 06:45:44;;;;;;;9.07;4.28;;;16.40;99.90;;;;;;5036018;28;20025;-49
2023/06/07 06:48:10;;;;;;;11.02;4.30;;;16.40;99.90;;;;;;5054582;28;20132;-48
2023/06/07 06:50:36;;;;;;;8.13;4.35;;;16.40;99.90;;;;;;5053679;28;20021;-49
2023/06/07 06:53:02;;;;;;;12.23;4.60;;;16.40;99.90;;;;;;5053675;28;20032;-48
2023/06/07 06:55:28;;;;;;;7.32;4.18;;;16.40;99.90;;;;;;5053765;28;20241;-46
2023/06/07 06:57:55;;;;;;;6.82;3.97;;;16.40;99.90;;;;;;5053579;28;20060;-46
2023/06/07 07:00:23;;;;;;;7.57;4.28;;;16.40;99.90;;;;;;5053475;28;20044;-46
2023/06/07 07:02:49;;;;;;;6.85;3.47;;;16.50;99.90;;;;;;5053368;28;20103;-48
2023/06/07 07:05:15;;;;;;;10.25;4.05;;;16.50;99.90;;;;;;5053654;28;20025;-48
2023/06/07 07:07:41;;;;;;;7.45;4.18;;;16.50;99.90;;;;;;5053273;28;20039;-49
2023/06/07 07:10:08;;;;;;;10.85;4.35;;;16.40;99.90;;;;;;5053112;28;20060;-48
2023/06/07 07:12:38;;;;;;;10.68;4.35;;;16.40;99.90;;;;;;5053244;28;20115;-48
2023/06/07 07:15:05;;;;;;;8.52;4.32;;;16.40;99.90;;;;;;5053205;28;20124;-49
2023/06/07 07:17:31;;;;;;;8.60;4.47;;;16.30;99.90;;;;;;5052986;28;20033;-47
2023/06/07 07:19:56;;;;;;;13.98;5.05;;;16.30;99.90;;;;;;5052614;28;20098;-48
2023/06/07 07:22:22;;;;;;;10.48;4.90;;;16.30;99.90;;;;;;5052650;28;20025;-48
2023/06/07 07:24:48;;;;;;;8.45;4.60;;;16.30;99.90;;;;;;5052984;28;20112;-48
2023/06/07 07:27:13;;;;;;;9.38;4.53;;;16.30;99.90;;;;;;5052896;28;20029;-49
2023/06/07 07:29:40;;;;;;;10.52;5.30;;;16.30;99.90;;;;;;5053014;28;20484;-47
2023/06/07 07:32:06;;;;;;;10.82;5.00;;;16.20;99.90;;;;;;5034735;28;20116;-48
2023/06/07 07:34:32;;;;;;;8.65;4.72;;;16.20;99.90;;;;;;5052834;28;20060;-46
2023/06/07 07:37:02;;;;;;;9.40;3.88;;;16.20;99.90;;;;;;5052490;28;20057;-50
2023/06/07 07:39:28;;;;;;;11.60;4.40;;;16.20;99.90;;;;;;5052767;28;20441;-48
2023/06/07 07:41:54;;;;;;;8.05;4.13;;;16.20;99.90;;;;;;5052274;28;20494;-48
2023/06/07 07:44:20;;;;;;;10.05;4.43;;;16.20;99.90;;;;;;5052712;28;20071;-48
2023/06/07 07:46:45;;;;;;;8.52;4.10;;;16.20;99.90;;;;;;5052206;28;20033;-48
2023/06/07 07:49:11;;;;;;;12.50;4.90;;;16.20;99.90;;;;;;5052608;28;20063;-48
2023/06/07 07:51:37;;;;;;;7.70;3.92;;;16.10;99.90;;;;;;5052080;28;20036;-48
2023/06/07 07:54:04;;;;;;;10.52;4.70;;;16.10;99.90;;;;;;5052464;28;20104;-46
2023/06/07 07:56:30;;;;;;;7.57;3.97;;;16.10;99.90;;;;;;5052225;28;20029;-46
2023/06/07 07:58:55;;;;;;;7.90;4.45;;;16.00;99.90;;;;;;5052497;28;20032;-47
2023/06/07 08:01:22;;;;;;;8.32;4.40;;;16.00;99.90;;;;;;5051932;28;20386;-47
2023/06/07 08:03:48;;;;;;;8.05;4.18;;;16.00;99.90;;;;;;5034245;28;20446;-46
2023/06/07 08:06:15;;;;;;;8.18;4.28;;;15.90;99.90;;;;;;5051991;28;20139;-48
2023/06/07 08:08:41;;;;;;;10.82;4.32;;;15.90;99.90;;;;;;5052044;28;20029;-48
2023/06/07 08:11:06;;;;;;;10.18;4.97;;;15.90;99.90;;;;;;5051824;28;20029;-47
2023/06/07 08:13:32;;;;;;;8.50;4.50;;;15.90;99.90;;;;;;5051840;28;20489;-47
2023/06/07 08:15:58;;;;;;;10.90;4.60;;;15.90;99.90;;;;;;5051667;28;20029;-49
2023/06/07 08:18:23;;;;;;;8.30;4.70;;;15.90;99.90;;;;;;5034252;28;20401;-46
2023/06/07 08:20:49;;;;;;;8.63;4.18;;;15.90;99.90;;;;;;5051540;28;20079;-47
2023/06/07 08:23:15;;;;;;;11.57;5.25;;;15.90;99.90;;;;;;5051899;28;20482;-47
2023/06/07 08:25:41;;;;;;;9.45;4.43;;;15.90;99.90;;;;;;5051576;28;20576;-46
2023/06/07 08:28:08;;;;;;;10.38;4.68;;;15.90;99.90;;;;;;5051774;28;20104;-48
2023/06/07 08:30:34;;;;;;;10.55;5.28;;;15.90;99.90;;;;;;5051371;28;20029;-47
2023/06/07 08:32:59;;;;;;;13.15;5.03;;;15.80;99.90;;;;;;5050669;28;20083;-50
2023/06/07 08:35:25;;;;;;;11.38;5.63;;;15.80;99.90;;;;;;5051442;28;20252;-48
2023/06/07 08:37:51;;;;;;;13.07;5.93;;;15.80;99.90;;;;;;5051692;28;20060;-48
2023/06/07 08:40:18;;;;;;;10.27;5.60;;;15.80;99.90;;;;;;5051507;28;20385;-49
2023/06/07 08:42:44;;;;;;;10.82;5.43;;;15.70;99.90;;;;;;5051466;28;20320;-49
2023/06/07 08:45:11;;;;;;;12.40;5.45;;;15.70;99.90;;;;;;5051209;28;20123;-51
2023/06/07 08:47:37;;;;;;;11.45;6.60;;;15.50;99.90;;;;;;5051404;28;20035;-49
2023/06/07 08:50:03;;;;;;;12.90;5.78;;;15.40;99.90;;;;;;5050966;28;20037;-47
2023/06/07 08:52:31;;;;;;;12.70;6.55;;;15.20;99.90;;;;;;5051234;28;20037;-51
2023/06/07 08:55:02;;;;;;;14.45;6.93;;;15.20;99.90;;;;;;5051408;28;20091;-49
2023/06/07 08:57:30;;;;;;;13.70;6.95;;;15.20;99.90;;;;;;5051079;28;20064;-48
2023/06/07 08:59:57;;;;;;;14.13;6.72;;;15.20;99.90;;;;;;5033446;28;20061;-50
2023/06/07 09:02:25;;;;;;;15.45;6.75;;;15.10;99.90;;;;;;5051164;28;20029;-49
2023/06/07 09:04:51;;;;;;;15.07;6.47;;;15.00;99.90;;;;;;5051187;28;20039;-48
2023/06/07 09:07:17;;;;;;;14.18;7.07;;;15.10;99.90;;;;;;5050989;28;20025;-50
2023/06/07 09:09:43;;;;;;;14.52;6.63;;;15.00;99.90;;;;;;5051151;28;20407;-48
2023/06/07 09:12:12;;;;;;;14.98;7.07;;;14.90;99.90;;;;;;5050739;28;20490;-49
2023/06/07 09:14:39;;;;;;;16.60;6.90;;;14.80;99.90;;;;;;5050900;28;20037;-49
2023/06/07 09:17:05;;;;;;;15.40;7.53;;;14.80;99.90;;;;;;5050912;28;20477;-50
2023/06/07 09:19:39;;;;;;;15.75;7.20;;;14.80;99.90;;;;;;5050890;28;20021;-49
2023/06/07 09:22:12;;;;;;;13.95;6.57;;;14.80;99.90;;;;;;5050701;28;20051;-48
2023/06/07 09:24:38;;;;;;;12.57;6.70;;;14.80;99.90;;;;;;5050754;28;20032;-49
2023/06/07 09:27:04;;;;;;;15.75;7.60;;;14.90;99.90;;;;;;5050884;28;20033;-48
2023/06/07 09:29:41;;;;;;;16.65;7.75;;;14.90;99.90;;;;;;5050967;28;20033;-48
2023/06/07 09:32:21;;;;;;;17.05;7.85;;;14.90;99.90;;;;;;5050530;28;20033;-48
2023/06/07 09:34:48;;;;;;;14.05;6.95;;;14.90;99.90;;;;;;5050664;28;20033;-48
2023/06/07 09:37:17;;;;;;;16.67;8.10;;;14.80;99.90;;;;;;5050414;28;20040;-53
2023/06/07 09:39:43;;;;;;;17.27;7.70;;;14.70;99.90;;;;;;5050956;28;20032;-50
2023/06/07 09:42:16;;;;;;;15.90;7.90;;;14.80;99.90;;;;;;5050454;28;20080;-49
2023/06/07 09:44:43;;;;;;;17.30;7.65;;;14.80;99.90;;;;;;5050637;28;20478;-49
2023/06/07 09:47:22;;;;;;;17.17;8.10;;;14.90;99.90;;;;;;5050519;28;20072;-52
2023/06/07 09:49:48;;;;;;;15.98;8.48;;;14.90;99.90;;;;;;5050527;28;20032;-48
2023/06/07 09:52:15;;;;;;;20.38;9.65;;;14.90;99.90;;;;;;5050301;28;20032;-48
2023/06/07 09:54:45;;;;;;;20.05;8.82;;;15.00;99.90;;;;;;5050524;28;20060;-47
2023/06/07 09:57:25;;;;;;;19.75;8.68;;;15.00;99.90;;;;;;5050427;28;20029;-48
2023/06/07 09:59:58;;;;;;;20.80;10.10;;;15.10;99.90;;;;;;5050515;28;20025;-48
2023/06/07 10:02:29;;;;;;;21.83;10.25;;;15.10;99.90;;;;;;5050239;28;20028;-49
2023/06/07 10:04:56;;;;;;;21.65;10.35;;;15.10;99.90;;;;;;5050958;28;20032;-49
2023/06/07 10:07:23;;;;;;;22.65;10.65;;;15.00;99.90;;;;;;5050499;28;20041;-49
2023/06/07 10:09:58;;;;;;;24.60;10.70;;;15.10;99.90;;;;;;5050693;28;20382;-51
2023/06/07 10:12:28;;;;;;;23.67;11.23;;;15.10;99.90;;;;;;5050298;28;20416;-50
2023/06/07 10:14:54;;;;;;;23.58;11.07;;;15.20;99.90;;;;;;5050421;28;20037;-49
2023/06/07 10:17:42;;;;;;;27.20;12.23;;;15.20;99.90;;;;;;5050339;28;20103;-48
2023/06/07 10:20:15;;;;;;;25.85;11.60;;;15.30;99.90;;;;;;5050581;28;20032;-49
2023/06/07 10:22:43;;;;;;;26.40;12.80;;;15.40;99.90;;;;;;5050554;28;20029;-52
2023/06/07 10:25:23;;;;;;;24.35;12.95;;;15.40;99.90;;;;;;5050581;28;20044;-49
2023/06/07 10:28:08;;;;;;;26.80;13.52;;;15.50;99.90;;;;;;5050586;28;20036;-46
2023/06/07 10:30:40;;;;;;;26.85;13.10;;;15.50;99.90;;;;;;5050113;28;20078;-48
2023/06/07 10:33:08;;;;;;;23.05;12.30;;;15.50;99.90;;;;;;5050038;28;20068;-47
2023/06/07 10:35:35;;;;;;;24.85;12.88;;;15.50;99.90;;;;;;5049874;28;20033;-49
2023/06/07 10:38:00;;;;;;;25.60;12.45;;;15.60;99.90;;;;;;5050086;28;20032;-49
2023/06/07 10:40:26;;;;;;;26.80;11.63;;;15.70;99.90;;;;;;5050244;28;20021;-48
2023/06/07 10:42:55;;;;;;;28.20;11.85;;;15.80;99.90;;;;;;5050021;28;20119;-47
2023/06/07 10:45:21;;;;;;;;;;;15.80;99.90;;;;;;5050455;28;20029;-46
2023/06/07 10:47:50;;;;;;;21.83;11.05;;;15.90;99.90;;;;;;5050524;28;20368;-49
2023/06/07 10:50:27;;;;;;;21.98;10.82;;;15.90;99.90;;;;;;5049849;28;20025;-47
2023/06/07 10:53:00;;;;;;;22.33;11.80;;;16.00;99.90;;;;;;5049932;28;20417;-51
2023/06/07 10:55:31;;;;;;;19.48;10.55;;;16.00;99.90;;;;;;5050334;28;20033;-48
2023/06/07 10:58:00;;;;;;;21.80;10.65;;;16.10;99.90;;;;;;5053618;28;20156;-48
2023/06/07 11:00:32;;;;;;;20.20;10.20;;;16.20;99.90;;;;;;5053211;28;20029;-47
2023/06/07 11:03:16;;;;;;;21.52;10.00;;;16.30;99.90;;;;;;5053246;28;20385;-47
2023/06/07 11:05:53;;;;;;;24.88;10.40;;;16.30;99.90;;;;;;5053390;28;20025;-50
2023/06/07 11:08:32;;;;;;;18.02;8.95;;;16.30;99.90;;;;;;5053292;28;20025;-48
2023/06/07 11:11:00;;;;;;;17.52;8.70;;;16.40;99.90;;;;;;5052933;28;20027;-48
2023/06/07 11:13:32;;;;;;;17.17;8.90;;;16.40;99.90;;;;;;5053052;28;20029;-50
2023/06/07 11:16:24;;;;;;;21.17;10.00;;;16.40;99.90;;;;;;5053131;28;20036;-52
2023/06/07 11:19:00;;;;;;;17.70;8.68;;;16.40;99.90;;;;;;5041902;28;20041;-49
2023/06/07 11:21:30;;;;;;;17.23;8.43;;;16.40;99.90;;;;;;5052783;28;20025;-48
2023/06/07 11:24:14;;;;;;;18.77;9.15;;;16.40;99.90;;;;;;5053165;28;20029;-47
2023/06/07 11:26:40;;;;;;;16.42;9.23;;;16.50;99.90;;;;;;5052824;28;20509;-47
2023/06/07 11:29:10;;;;;;;17.50;8.90;;;16.60;99.90;;;;;;5052882;28;20115;-48
2023/06/07 11:31:36;;;;;;;18.33;8.85;;;16.70;99.90;;;;;;5052497;28;20062;-47
2023/06/07 11:34:02;;;;;;;14.75;8.43;;;16.80;99.90;;;;;;5052700;28;20033;-48
2023/06/07 11:36:34;;;;;;;18.83;8.40;;;17.00;99.90;;;;;;5052507;28;20033;-48
2023/06/07 11:39:05;;;;;;;18.63;8.77;;;17.10;99.90;;;;;;5052717;28;20052;-47
2023/06/07 11:41:31;;;;;;;16.33;8.30;;;17.30;99.90;;;;;;5052405;28;20040;-51
2023/06/07 11:44:01;;;;;;;13.82;7.78;;;17.40;99.90;;;;;;5052569;28;20028;-47
2023/06/07 11:46:32;;;;;;;15.93;8.52;;;17.50;99.90;;;;;;5052105;28;20055;-48
2023/06/07 11:49:07;;;;;;;17.55;8.55;;;17.60;99.90;;;;;;5052550;28;20033;-48
2023/06/07 11:51:33;;;;;;;18.10;8.85;;;17.70;99.90;;;;;;5052434;28;20040;-51
2023/06/07 11:53:59;;;;;;;18.88;8.48;;;17.80;99.90;;;;;;5052202;28;20037;-48
2023/06/07 11:56:26;;;;;;;15.82;8.43;;;17.90;99.90;;;;;;5052093;28;20029;-48
2023/06/07 11:58:52;;;;;;;18.30;9.52;;;18.00;99.90;;;;;;5052253;28;20032;-47
2023/06/07 12:01:20;;;;;;;19.35;9.32;;;18.10;99.90;;;;;;5052127;28;20063;-48
2023/06/07 12:03:48;;;;;;;15.70;9.20;;;18.20;99.90;;;;;;5052186;28;20033;-49
2023/06/07 12:06:14;;;;;;;14.48;7.82;;;18.30;99.90;;;;;;5051825;28;20025;-48
2023/06/07 12:08:40;;;;;;;15.43;8.30;;;18.40;99.90;;;;;;5052154;28;20405;-49
2023/06/07 12:11:06;;;;;;;19.13;8.15;;;18.60;99.90;;;;;;5051965;28;20032;-49
2023/06/07 12:13:39;;;;;;;14.15;8.32;;;18.80;99.90;;;;;;5051639;28;20044;-48
2023/06/07 12:16:06;;;;;;;15.75;8.63;;;18.90;99.90;;;;;;5051780;28;20061;-48
2023/06/07 12:18:35;;;;;;;14.20;7.93;;;19.00;99.90;;;;;;5052099;28;20029;-49
2023/06/07 12:21:08;;;;;;;13.27;8.05;;;19.00;99.90;;;;;;5051808;28;20580;-48
2023/06/07 12:23:36;;;;;;;15.13;8.00;;;19.00;99.90;;;;;;5051819;28;20502;-48
2023/06/07 12:26:08;;;;;;;16.70;7.65;;;19.10;99.90;;;;;;5051530;28;20566;-50
2023/06/07 12:28:34;;;;;;;14.93;7.57;;;19.30;99.90;;;;;;5051925;28;20057;-48
2023/06/07 12:31:00;;;;;;;15.13;7.60;;;19.50;99.90;;;;;;5051558;28;20039;-47
2023/06/07 12:33:27;;;;;;;13.82;7.35;;;19.50;99.90;;;;;;5052019;28;20045;-51
2023/06/07 12:35:53;;;;;;;10.73;6.95;;;19.60;99.90;;;;;;5051701;28;20378;-49
2023/06/07 12:38:23;;;;;;;10.70;7.25;;;19.50;99.90;;;;;;5051931;28;20040;-49
2023/06/07 12:40:49;;;;;;;14.13;7.88;;;19.50;99.90;;;;;;5051494;28;20460;-48
2023/06/07 12:43:15;;;;;;;9.18;6.05;;;19.50;99.90;;;;;;5051436;28;20108;-51
2023/06/07 12:45:41;;;;;;;13.60;7.18;;;19.50;99.90;;;;;;5051212;28;20029;-47
2023/06/07 12:48:07;;;;;;;14.55;7.10;;;19.60;99.90;;;;;;5051421;28;20486;-51